sensor_id;sensor_type;location;lat;lon;timestamp;P1;durP1;ratioP1;P2;durP2;ratioP2
20393;SDS011;10356;50.544;9.642;2023-08-24T00:02:00;4.95;;;3.33;;
20393;SDS011;10356;50.544;9.642;2023-08-24T00:04:26;4.60;;;3.63;;
20393;SDS011;10356;50.544;9.642;2023-08-24T00:06:53;5.53;;;4.07;;
20393;SDS011;10356;50.544;9.642;2023-08-24T00:09:20;7.15;;;3.63;;
20393;SDS011;10356;50.544;9.642;2023-08-24T00:11:47;4.40;;;4.00;;
20393;SDS011;10356;50.544;9.642;2023-08-24T00:14:14;5.13;;;3.90;;
20393;SDS011;10356;50.544;9.642;2023-08-24T00:16:41;5.78;;;3.97;;
20393;SDS011;10356;50.544;9.642;2023-08-24T00:19:08;5.38;;;3.88;;
20393;SDS011;10356;50.544;9.642;2023-08-24T00:21:35;3.83;;;3.42;;
20393;SDS011;10356;50.544;9.642;2023-08-24T00:24:01;6.35;;;4.03;;
20393;SDS011;10356;50.544;9.642;2023-08-24T00:26:28;6.13;;;3.58;;
20393;SDS011;10356;50.544;9.642;2023-08-24T00:28:54;5.10;;;4.07;;
20393;SDS011;10356;50.544;9.642;2023-08-24T00:31:22;5.07;;;3.90;;
20393;SDS011;10356;50.544;9.642;2023-08-24T00:33:49;4.93;;;3.95;;
20393;SDS011;10356;50.544;9.642;2023-08-24T00:36:16;4.93;;;3.80;;
20393;SDS011;10356;50.544;9.642;2023-08-24T00:38:44;4.22;;;3.45;;
20393;SDS011;10356;50.544;9.642;2023-08-24T00:41:12;4.97;;;4.30;;
20393;SDS011;10356;50.544;9.642;2023-08-24T00:43:38;5.18;;;3.70;;
20393;SDS011;10356;50.544;9.642;2023-08-24T00:46:06;6.55;;;3.90;;
20393;SDS011;10356;50.544;9.642;2023-08-24T00:48:33;4.43;;;3.80;;
20393;SDS011;10356;50.544;9.642;2023-08-24T00:51:00;6.35;;;3.50;;
20393;SDS011;10356;50.544;9.642;2023-08-24T00:53:28;4.45;;;3.72;;
20393;SDS011;10356;50.544;9.642;2023-08-24T00:55:55;5.63;;;3.83;;
20393;SDS011;10356;50.544;9.642;2023-08-24T00:58:22;5.63;;;4.07;;
20393;SDS011;10356;50.544;9.642;2023-08-24T01:00:50;6.32;;;4.40;;
20393;SDS011;10356;50.544;9.642;2023-08-24T01:03:18;7.03;;;5.22;;
20393;SDS011;10356;50.544;9.642;2023-08-24T01:05:46;7.82;;;4.82;;
20393;SDS011;10356;50.544;9.642;2023-08-24T01:08:13;4.75;;;4.30;;
20393;SDS011;10356;50.544;9.642;2023-08-24T01:10:41;6.18;;;4.63;;
20393;SDS011;10356;50.544;9.642;2023-08-24T01:13:14;5.68;;;3.90;;
20393;SDS011;10356;50.544;9.642;2023-08-24T01:15:48;11.05;;;5.00;;
20393;SDS011;10356;50.544;9.642;2023-08-24T01:18:21;5.93;;;5.35;;
20393;SDS011;10356;50.544;9.642;2023-08-24T01:20:53;4.93;;;4.40;;
20393;SDS011;10356;50.544;9.642;2023-08-24T01:23:27;5.82;;;5.22;;
20393;SDS011;10356;50.544;9.642;2023-08-24T01:26:06;7.88;;;5.53;;
20393;SDS011;10356;50.544;9.642;2023-08-24T01:28:35;6.47;;;4.82;;
20393;SDS011;10356;50.544;9.642;2023-08-24T01:31:03;7.70;;;5.53;;
20393;SDS011;10356;50.544;9.642;2023-08-24T01:33:30;5.75;;;5.05;;
20393;SDS011;10356;50.544;9.642;2023-08-24T01:35:56;5.97;;;5.00;;
20393;SDS011;10356;50.544;9.642;2023-08-24T01:38:23;10.20;;;5.28;;
20393;SDS011;10356;50.544;9.642;2023-08-24T01:40:51;5.15;;;4.65;;
20393;SDS011;10356;50.544;9.642;2023-08-24T01:43:27;7.53;;;5.07;;
20393;SDS011;10356;50.544;9.642;2023-08-24T01:45:58;6.43;;;4.60;;
20393;SDS011;10356;50.544;9.642;2023-08-24T01:48:27;5.40;;;4.90;;
20393;SDS011;10356;50.544;9.642;2023-08-24T01:50:55;5.13;;;4.63;;
20393;SDS011;10356;50.544;9.642;2023-08-24T01:53:22;4.82;;;4.32;;
20393;SDS011;10356;50.544;9.642;2023-08-24T01:55:49;6.65;;;4.65;;
20393;SDS011;10356;50.544;9.642;2023-08-24T01:58:16;6.68;;;4.50;;
20393;SDS011;10356;50.544;9.642;2023-08-24T02:00:43;5.15;;;4.57;;
20393;SDS011;10356;50.544;9.642;2023-08-24T02:03:10;5.88;;;4.80;;
20393;SDS011;10356;50.544;9.642;2023-08-24T02:05:36;5.20;;;4.68;;
20393;SDS011;10356;50.544;9.642;2023-08-24T02:08:03;8.40;;;4.85;;
20393;SDS011;10356;50.544;9.642;2023-08-24T02:10:29;8.80;;;5.22;;
20393;SDS011;10356;50.544;9.642;2023-08-24T02:12:55;8.23;;;4.93;;
20393;SDS011;10356;50.544;9.642;2023-08-24T02:15:22;9.13;;;4.95;;
20393;SDS011;10356;50.544;9.642;2023-08-24T02:17:50;7.82;;;4.95;;
20393;SDS011;10356;50.544;9.642;2023-08-24T02:20:16;7.90;;;5.53;;
20393;SDS011;10356;50.544;9.642;2023-08-24T02:22:43;9.85;;;5.60;;
20393;SDS011;10356;50.544;9.642;2023-08-24T02:25:09;8.68;;;5.72;;
20393;SDS011;10356;50.544;9.642;2023-08-24T02:27:36;7.80;;;5.53;;
20393;SDS011;10356;50.544;9.642;2023-08-24T02:30:03;9.57;;;5.80;;
20393;SDS011;10356;50.544;9.642;2023-08-24T02:32:30;6.93;;;4.80;;
20393;SDS011;10356;50.544;9.642;2023-08-24T02:34:58;7.57;;;5.75;;
20393;SDS011;10356;50.544;9.642;2023-08-24T02:37:25;6.68;;;5.32;;
20393;SDS011;10356;50.544;9.642;2023-08-24T02:39:52;5.85;;;5.03;;
20393;SDS011;10356;50.544;9.642;2023-08-24T02:42:18;8.82;;;5.07;;
20393;SDS011;10356;50.544;9.642;2023-08-24T02:44:45;7.32;;;4.82;;
20393;SDS011;10356;50.544;9.642;2023-08-24T02:47:12;7.95;;;4.95;;
20393;SDS011;10356;50.544;9.642;2023-08-24T02:49:39;5.30;;;4.65;;
20393;SDS011;10356;50.544;9.642;2023-08-24T02:52:07;9.20;;;4.25;;
20393;SDS011;10356;50.544;9.642;2023-08-24T02:54:34;8.40;;;4.90;;
20393;SDS011;10356;50.544;9.642;2023-08-24T02:57:00;8.45;;;4.85;;
20393;SDS011;10356;50.544;9.642;2023-08-24T02:59:27;4.85;;;4.25;;
20393;SDS011;10356;50.544;9.642;2023-08-24T03:01:54;5.82;;;4.63;;
20393;SDS011;10356;50.544;9.642;2023-08-24T03:04:20;7.68;;;4.25;;
20393;SDS011;10356;50.544;9.642;2023-08-24T03:06:47;6.72;;;4.53;;
20393;SDS011;10356;50.544;9.642;2023-08-24T03:09:15;4.95;;;4.28;;
20393;SDS011;10356;50.544;9.642;2023-08-24T03:11:41;5.95;;;3.97;;
20393;SDS011;10356;50.544;9.642;2023-08-24T03:14:08;4.63;;;4.18;;
20393;SDS011;10356;50.544;9.642;2023-08-24T03:16:35;6.68;;;4.05;;
20393;SDS011;10356;50.544;9.642;2023-08-24T03:19:03;5.38;;;3.95;;
20393;SDS011;10356;50.544;9.642;2023-08-24T03:21:29;4.63;;;4.05;;
20393;SDS011;10356;50.544;9.642;2023-08-24T03:23:56;4.47;;;3.97;;
20393;SDS011;10356;50.544;9.642;2023-08-24T03:26:24;4.95;;;3.90;;
20393;SDS011;10356;50.544;9.642;2023-08-24T03:28:50;8.80;;;4.70;;
20393;SDS011;10356;50.544;9.642;2023-08-24T03:31:17;4.60;;;4.20;;
20393;SDS011;10356;50.544;9.642;2023-08-24T03:33:43;6.28;;;4.50;;
20393;SDS011;10356;50.544;9.642;2023-08-24T03:36:10;7.32;;;4.80;;
20393;SDS011;10356;50.544;9.642;2023-08-24T03:38:38;6.45;;;4.18;;
20393;SDS011;10356;50.544;9.642;2023-08-24T03:41:04;5.57;;;4.82;;
20393;SDS011;10356;50.544;9.642;2023-08-24T03:43:33;4.93;;;4.50;;
20393;SDS011;10356;50.544;9.642;2023-08-24T03:46:02;6.95;;;4.70;;
20393;SDS011;10356;50.544;9.642;2023-08-24T03:48:29;5.53;;;4.75;;
20393;SDS011;10356;50.544;9.642;2023-08-24T03:50:55;5.55;;;4.45;;
20393;SDS011;10356;50.544;9.642;2023-08-24T03:53:22;6.88;;;4.63;;
20393;SDS011;10356;50.544;9.642;2023-08-24T03:55:50;5.60;;;4.82;;
20393;SDS011;10356;50.544;9.642;2023-08-24T03:58:17;5.45;;;4.78;;
20393;SDS011;10356;50.544;9.642;2023-08-24T04:00:45;4.65;;;4.25;;
20393;SDS011;10356;50.544;9.642;2023-08-24T04:03:11;7.30;;;4.38;;
20393;SDS011;10356;50.544;9.642;2023-08-24T04:05:38;8.20;;;4.65;;
20393;SDS011;10356;50.544;9.642;2023-08-24T04:08:05;7.45;;;4.68;;
20393;SDS011;10356;50.544;9.642;2023-08-24T04:10:32;6.63;;;4.15;;
20393;SDS011;10356;50.544;9.642;2023-08-24T04:12:58;5.97;;;4.88;;
20393;SDS011;10356;50.544;9.642;2023-08-24T04:15:25;4.97;;;4.50;;
20393;SDS011;10356;50.544;9.642;2023-08-24T04:17:53;6.68;;;4.25;;
20393;SDS011;10356;50.544;9.642;2023-08-24T04:20:20;5.63;;;4.80;;
20393;SDS011;10356;50.544;9.642;2023-08-24T04:22:46;8.15;;;4.78;;
20393;SDS011;10356;50.544;9.642;2023-08-24T04:25:13;5.38;;;4.40;;
20393;SDS011;10356;50.544;9.642;2023-08-24T04:27:39;6.10;;;4.90;;
20393;SDS011;10356;50.544;9.642;2023-08-24T04:30:07;8.05;;;4.53;;
20393;SDS011;10356;50.544;9.642;2023-08-24T04:32:36;5.63;;;4.70;;
20393;SDS011;10356;50.544;9.642;2023-08-24T04:35:05;6.38;;;4.57;;
20393;SDS011;10356;50.544;9.642;2023-08-24T04:37:33;8.00;;;5.10;;
20393;SDS011;10356;50.544;9.642;2023-08-24T04:39:59;7.65;;;4.97;;
20393;SDS011;10356;50.544;9.642;2023-08-24T04:42:25;5.70;;;5.05;;
20393;SDS011;10356;50.544;9.642;2023-08-24T04:44:52;6.53;;;5.38;;
20393;SDS011;10356;50.544;9.642;2023-08-24T04:47:18;4.95;;;4.45;;
20393;SDS011;10356;50.544;9.642;2023-08-24T04:49:45;10.52;;;5.47;;
20393;SDS011;10356;50.544;9.642;2023-08-24T04:52:13;5.93;;;4.60;;
20393;SDS011;10356;50.544;9.642;2023-08-24T04:54:39;4.88;;;4.40;;
20393;SDS011;10356;50.544;9.642;2023-08-24T04:57:06;9.07;;;4.88;;
20393;SDS011;10356;50.544;9.642;2023-08-24T04:59:32;6.95;;;5.00;;
20393;SDS011;10356;50.544;9.642;2023-08-24T05:01:59;7.78;;;4.70;;
20393;SDS011;10356;50.544;9.642;2023-08-24T05:04:25;9.90;;;5.03;;
20393;SDS011;10356;50.544;9.642;2023-08-24T05:06:52;8.02;;;4.93;;
20393;SDS011;10356;50.544;9.642;2023-08-24T05:09:19;10.50;;;5.28;;
20393;SDS011;10356;50.544;9.642;2023-08-24T05:11:47;6.38;;;4.50;;
20393;SDS011;10356;50.544;9.642;2023-08-24T05:14:14;9.25;;;5.10;;
20393;SDS011;10356;50.544;9.642;2023-08-24T05:16:41;6.78;;;4.43;;
20393;SDS011;10356;50.544;9.642;2023-08-24T05:19:08;7.28;;;4.68;;
20393;SDS011;10356;50.544;9.642;2023-08-24T05:21:34;7.07;;;4.65;;
20393;SDS011;10356;50.544;9.642;2023-08-24T05:24:00;6.18;;;4.70;;
20393;SDS011;10356;50.544;9.642;2023-08-24T05:26:30;9.88;;;4.70;;
20393;SDS011;10356;50.544;9.642;2023-08-24T05:28:56;6.40;;;5.10;;
20393;SDS011;10356;50.544;9.642;2023-08-24T05:31:23;7.43;;;5.38;;
20393;SDS011;10356;50.544;9.642;2023-08-24T05:33:49;6.78;;;5.50;;
20393;SDS011;10356;50.544;9.642;2023-08-24T05:36:16;12.63;;;6.00;;
20393;SDS011;10356;50.544;9.642;2023-08-24T05:38:42;5.63;;;5.00;;
20393;SDS011;10356;50.544;9.642;2023-08-24T05:41:12;9.07;;;5.13;;
20393;SDS011;10356;50.544;9.642;2023-08-24T05:43:40;7.43;;;5.30;;
20393;SDS011;10356;50.544;9.642;2023-08-24T05:46:07;5.60;;;5.10;;
20393;SDS011;10356;50.544;9.642;2023-08-24T05:48:33;5.55;;;4.93;;
20393;SDS011;10356;50.544;9.642;2023-08-24T05:50:59;12.18;;;5.82;;
20393;SDS011;10356;50.544;9.642;2023-08-24T05:53:26;7.68;;;5.22;;
20393;SDS011;10356;50.544;9.642;2023-08-24T05:55:56;5.72;;;5.07;;
20393;SDS011;10356;50.544;9.642;2023-08-24T05:58:23;6.78;;;5.38;;
20393;SDS011;10356;50.544;9.642;2023-08-24T06:00:56;10.90;;;5.53;;
20393;SDS011;10356;50.544;9.642;2023-08-24T06:03:23;24.83;;;6.60;;
20393;SDS011;10356;50.544;9.642;2023-08-24T06:05:50;15.52;;;6.38;;
20393;SDS011;10356;50.544;9.642;2023-08-24T06:08:17;12.00;;;5.85;;
20393;SDS011;10356;50.544;9.642;2023-08-24T06:10:43;13.23;;;6.53;;
20393;SDS011;10356;50.544;9.642;2023-08-24T06:13:10;13.05;;;6.80;;
20393;SDS011;10356;50.544;9.642;2023-08-24T06:15:36;13.73;;;6.53;;
20393;SDS011;10356;50.544;9.642;2023-08-24T06:18:04;10.77;;;6.22;;
20393;SDS011;10356;50.544;9.642;2023-08-24T06:20:31;9.27;;;5.43;;
20393;SDS011;10356;50.544;9.642;2023-08-24T06:22:57;10.10;;;5.88;;
20393;SDS011;10356;50.544;9.642;2023-08-24T06:25:24;7.82;;;6.05;;
20393;SDS011;10356;50.544;9.642;2023-08-24T06:27:50;7.43;;;5.40;;
20393;SDS011;10356;50.544;9.642;2023-08-24T06:30:17;10.60;;;5.70;;
20393;SDS011;10356;50.544;9.642;2023-08-24T06:32:43;11.15;;;5.57;;
20393;SDS011;10356;50.544;9.642;2023-08-24T06:35:11;9.55;;;5.00;;
20393;SDS011;10356;50.544;9.642;2023-08-24T06:37:42;8.13;;;5.10;;
20393;SDS011;10356;50.544;9.642;2023-08-24T06:40:09;8.50;;;5.45;;
20393;SDS011;10356;50.544;9.642;2023-08-24T06:42:37;6.68;;;4.82;;
20393;SDS011;10356;50.544;9.642;2023-08-24T06:45:04;12.07;;;5.32;;
20393;SDS011;10356;50.544;9.642;2023-08-24T06:47:31;6.57;;;5.00;;
20393;SDS011;10356;50.544;9.642;2023-08-24T06:49:58;8.82;;;5.00;;
20393;SDS011;10356;50.544;9.642;2023-08-24T06:52:26;8.13;;;5.20;;
20393;SDS011;10356;50.544;9.642;2023-08-24T06:54:53;7.10;;;4.60;;
20393;SDS011;10356;50.544;9.642;2023-08-24T06:57:21;11.10;;;5.07;;
20393;SDS011;10356;50.544;9.642;2023-08-24T06:59:47;6.88;;;4.50;;
20393;SDS011;10356;50.544;9.642;2023-08-24T07:02:14;11.07;;;4.93;;
20393;SDS011;10356;50.544;9.642;2023-08-24T07:04:42;10.52;;;4.40;;
20393;SDS011;10356;50.544;9.642;2023-08-24T07:07:09;7.60;;;4.38;;
20393;SDS011;10356;50.544;9.642;2023-08-24T07:09:37;4.80;;;4.03;;
20393;SDS011;10356;50.544;9.642;2023-08-24T07:12:04;11.07;;;4.82;;
20393;SDS011;10356;50.544;9.642;2023-08-24T07:14:32;11.50;;;4.50;;
20393;SDS011;10356;50.544;9.642;2023-08-24T07:16:58;13.55;;;5.05;;
20393;SDS011;10356;50.544;9.642;2023-08-24T07:19:25;8.73;;;4.90;;
20393;SDS011;10356;50.544;9.642;2023-08-24T07:21:52;8.05;;;4.55;;
20393;SDS011;10356;50.544;9.642;2023-08-24T07:24:18;7.25;;;4.60;;
20393;SDS011;10356;50.544;9.642;2023-08-24T07:26:47;10.50;;;4.70;;
20393;SDS011;10356;50.544;9.642;2023-08-24T07:29:13;8.80;;;4.78;;
20393;SDS011;10356;50.544;9.642;2023-08-24T07:31:40;9.65;;;5.35;;
20393;SDS011;10356;50.544;9.642;2023-08-24T07:34:06;9.55;;;4.70;;
20393;SDS011;10356;50.544;9.642;2023-08-24T07:36:33;10.48;;;5.07;;
20393;SDS011;10356;50.544;9.642;2023-08-24T07:39:00;14.20;;;5.30;;
20393;SDS011;10356;50.544;9.642;2023-08-24T07:41:26;9.07;;;5.35;;
20393;SDS011;10356;50.544;9.642;2023-08-24T07:43:54;10.18;;;5.72;;
20393;SDS011;10356;50.544;9.642;2023-08-24T07:46:21;11.13;;;6.10;;
20393;SDS011;10356;50.544;9.642;2023-08-24T07:48:48;10.10;;;6.10;;
20393;SDS011;10356;50.544;9.642;2023-08-24T07:51:14;11.60;;;6.05;;
20393;SDS011;10356;50.544;9.642;2023-08-24T07:53:41;7.93;;;5.43;;
20393;SDS011;10356;50.544;9.642;2023-08-24T07:56:08;7.20;;;5.80;;
20393;SDS011;10356;50.544;9.642;2023-08-24T07:58:35;11.13;;;6.18;;
20393;SDS011;10356;50.544;9.642;2023-08-24T08:01:03;8.57;;;6.10;;
20393;SDS011;10356;50.544;9.642;2023-08-24T08:03:30;10.00;;;6.05;;
20393;SDS011;10356;50.544;9.642;2023-08-24T08:05:57;11.68;;;6.47;;
20393;SDS011;10356;50.544;9.642;2023-08-24T08:08:23;10.10;;;6.60;;
20393;SDS011;10356;50.544;9.642;2023-08-24T08:10:57;11.05;;;6.13;;
20393;SDS011;10356;50.544;9.642;2023-08-24T08:13:24;9.38;;;6.05;;
20393;SDS011;10356;50.544;9.642;2023-08-24T08:15:51;13.77;;;6.15;;
20393;SDS011;10356;50.544;9.642;2023-08-24T08:18:18;12.00;;;6.32;;
20393;SDS011;10356;50.544;9.642;2023-08-24T08:20:45;11.88;;;6.55;;
20393;SDS011;10356;50.544;9.642;2023-08-24T08:23:12;11.77;;;6.43;;
20393;SDS011;10356;50.544;9.642;2023-08-24T08:25:38;12.65;;;5.88;;
20393;SDS011;10356;50.544;9.642;2023-08-24T08:28:07;12.70;;;6.03;;
20393;SDS011;10356;50.544;9.642;2023-08-24T08:30:34;7.40;;;5.57;;
20393;SDS011;10356;50.544;9.642;2023-08-24T08:33:00;12.32;;;6.03;;
20393;SDS011;10356;50.544;9.642;2023-08-24T08:35:28;7.57;;;5.32;;
20393;SDS011;10356;50.544;9.642;2023-08-24T08:37:55;8.90;;;5.43;;
20393;SDS011;10356;50.544;9.642;2023-08-24T08:40:21;5.68;;;4.82;;
20393;SDS011;10356;50.544;9.642;2023-08-24T08:42:54;7.00;;;5.07;;
20393;SDS011;10356;50.544;9.642;2023-08-24T08:45:21;9.75;;;5.22;;
20393;SDS011;10356;50.544;9.642;2023-08-24T08:47:51;8.00;;;5.05;;
20393;SDS011;10356;50.544;9.642;2023-08-24T08:50:18;9.40;;;4.93;;
20393;SDS011;10356;50.544;9.642;2023-08-24T08:52:48;6.95;;;4.80;;
20393;SDS011;10356;50.544;9.642;2023-08-24T08:55:14;7.82;;;5.05;;
20393;SDS011;10356;50.544;9.642;2023-08-24T08:57:41;5.45;;;3.80;;
20393;SDS011;10356;50.544;9.642;2023-08-24T09:00:09;4.47;;;4.00;;
20393;SDS011;10356;50.544;9.642;2023-08-24T09:02:39;6.28;;;3.85;;
20393;SDS011;10356;50.544;9.642;2023-08-24T09:05:08;8.38;;;3.70;;
20393;SDS011;10356;50.544;9.642;2023-08-24T09:07:35;6.53;;;3.53;;
20393;SDS011;10356;50.544;9.642;2023-08-24T09:10:07;8.43;;;3.63;;
20393;SDS011;10356;50.544;9.642;2023-08-24T09:12:34;6.60;;;3.80;;
20393;SDS011;10356;50.544;9.642;2023-08-24T09:15:02;6.07;;;3.85;;
20393;SDS011;10356;50.544;9.642;2023-08-24T09:17:29;5.95;;;3.80;;
20393;SDS011;10356;50.544;9.642;2023-08-24T09:19:57;7.43;;;3.17;;
20393;SDS011;10356;50.544;9.642;2023-08-24T09:22:25;5.57;;;2.83;;
20393;SDS011;10356;50.544;9.642;2023-08-24T09:24:52;4.78;;;3.60;;
20393;SDS011;10356;50.544;9.642;2023-08-24T09:27:21;6.93;;;3.13;;
20393;SDS011;10356;50.544;9.642;2023-08-24T09:29:48;5.95;;;3.10;;
20393;SDS011;10356;50.544;9.642;2023-08-24T09:32:15;5.90;;;3.03;;
20393;SDS011;10356;50.544;9.642;2023-08-24T09:34:47;9.90;;;3.28;;
20393;SDS011;10356;50.544;9.642;2023-08-24T09:37:14;5.45;;;3.08;;
20393;SDS011;10356;50.544;9.642;2023-08-24T09:39:41;4.05;;;3.05;;
20393;SDS011;10356;50.544;9.642;2023-08-24T09:42:07;6.07;;;2.88;;
20393;SDS011;10356;50.544;9.642;2023-08-24T09:44:35;5.93;;;3.03;;
20393;SDS011;10356;50.544;9.642;2023-08-24T09:47:08;6.65;;;3.17;;
20393;SDS011;10356;50.544;9.642;2023-08-24T09:49:35;3.40;;;3.00;;
20393;SDS011;10356;50.544;9.642;2023-08-24T09:52:02;5.18;;;3.13;;
20393;SDS011;10356;50.544;9.642;2023-08-24T09:54:32;5.20;;;3.00;;
20393;SDS011;10356;50.544;9.642;2023-08-24T09:57:02;9.18;;;3.90;;
20393;SDS011;10356;50.544;9.642;2023-08-24T09:59:32;5.75;;;3.10;;
20393;SDS011;10356;50.544;9.642;2023-08-24T10:02:01;3.03;;;2.50;;
20393;SDS011;10356;50.544;9.642;2023-08-24T10:04:33;4.70;;;2.78;;
20393;SDS011;10356;50.544;9.642;2023-08-24T10:07:03;4.10;;;2.67;;
20393;SDS011;10356;50.544;9.642;2023-08-24T10:09:34;7.07;;;2.67;;
20393;SDS011;10356;50.544;9.642;2023-08-24T10:12:04;5.97;;;3.10;;
20393;SDS011;10356;50.544;9.642;2023-08-24T10:14:35;3.55;;;2.72;;
20393;SDS011;10356;50.544;9.642;2023-08-24T10:17:11;3.70;;;2.45;;
20393;SDS011;10356;50.544;9.642;2023-08-24T10:19:39;4.32;;;2.38;;
20393;SDS011;10356;50.544;9.642;2023-08-24T10:22:07;4.40;;;2.55;;
20393;SDS011;10356;50.544;9.642;2023-08-24T10:24:34;4.72;;;2.60;;
20393;SDS011;10356;50.544;9.642;2023-08-24T10:27:01;6.00;;;2.65;;
20393;SDS011;10356;50.544;9.642;2023-08-24T10:29:29;4.05;;;2.63;;
20393;SDS011;10356;50.544;9.642;2023-08-24T10:31:56;4.05;;;2.65;;
20393;SDS011;10356;50.544;9.642;2023-08-24T10:34:24;4.88;;;3.35;;
20393;SDS011;10356;50.544;9.642;2023-08-24T10:36:51;4.43;;;2.60;;
20393;SDS011;10356;50.544;9.642;2023-08-24T10:39:18;3.90;;;2.60;;
20393;SDS011;10356;50.544;9.642;2023-08-24T10:41:53;4.70;;;2.97;;
20393;SDS011;10356;50.544;9.642;2023-08-24T10:44:21;3.22;;;2.28;;
20393;SDS011;10356;50.544;9.642;2023-08-24T10:47:07;6.00;;;2.67;;
20393;SDS011;10356;50.544;9.642;2023-08-24T10:49:57;3.67;;;2.80;;
20393;SDS011;10356;50.544;9.642;2023-08-24T10:52:26;6.05;;;3.10;;
20393;SDS011;10356;50.544;9.642;2023-08-24T10:54:57;3.85;;;2.38;;
20393;SDS011;10356;50.544;9.642;2023-08-24T10:57:35;3.47;;;2.67;;
20393;SDS011;10356;50.544;9.642;2023-08-24T11:00:03;7.28;;;2.50;;
20393;SDS011;10356;50.544;9.642;2023-08-24T11:02:40;4.30;;;2.45;;
20393;SDS011;10356;50.544;9.642;2023-08-24T11:05:14;4.80;;;2.40;;
20393;SDS011;10356;50.544;9.642;2023-08-24T11:07:52;3.90;;;2.33;;
20393;SDS011;10356;50.544;9.642;2023-08-24T11:10:20;4.15;;;2.25;;
20393;SDS011;10356;50.544;9.642;2023-08-24T11:13:06;5.57;;;2.10;;
20393;SDS011;10356;50.544;9.642;2023-08-24T11:15:34;4.15;;;2.30;;
20393;SDS011;10356;50.544;9.642;2023-08-24T11:20:56;4.20;;;2.28;;
20393;SDS011;10356;50.544;9.642;2023-08-24T11:23:27;2.42;;;2.15;;
20393;SDS011;10356;50.544;9.642;2023-08-24T11:25:54;3.88;;;2.50;;
20393;SDS011;10356;50.544;9.642;2023-08-24T11:28:22;3.30;;;2.55;;
20393;SDS011;10356;50.544;9.642;2023-08-24T11:30:50;4.43;;;2.03;;
20393;SDS011;10356;50.544;9.642;2023-08-24T11:33:26;3.60;;;2.40;;
20393;SDS011;10356;50.544;9.642;2023-08-24T11:35:55;2.20;;;2.00;;
20393;SDS011;10356;50.544;9.642;2023-08-24T11:38:22;4.88;;;2.63;;
20393;SDS011;10356;50.544;9.642;2023-08-24T11:40:49;4.00;;;2.17;;
20393;SDS011;10356;50.544;9.642;2023-08-24T11:43:20;3.58;;;2.20;;
20393;SDS011;10356;50.544;9.642;2023-08-24T11:45:50;3.72;;;2.00;;
20393;SDS011;10356;50.544;9.642;2023-08-24T11:48:17;5.00;;;2.22;;
20393;SDS011;10356;50.544;9.642;2023-08-24T11:50:43;2.22;;;1.80;;
20393;SDS011;10356;50.544;9.642;2023-08-24T11:53:12;3.72;;;1.92;;
20393;SDS011;10356;50.544;9.642;2023-08-24T11:55:39;4.20;;;2.15;;
20393;SDS011;10356;50.544;9.642;2023-08-24T11:58:12;3.85;;;2.30;;
20393;SDS011;10356;50.544;9.642;2023-08-24T12:00:39;4.97;;;1.98;;
20393;SDS011;10356;50.544;9.642;2023-08-24T12:03:06;3.63;;;2.30;;
20393;SDS011;10356;50.544;9.642;2023-08-24T12:05:33;2.63;;;2.00;;
20393;SDS011;10356;50.544;9.642;2023-08-24T12:07:59;4.00;;;2.35;;
20393;SDS011;10356;50.544;9.642;2023-08-24T12:10:27;4.68;;;2.20;;
20393;SDS011;10356;50.544;9.642;2023-08-24T12:13:00;4.22;;;2.38;;
20393;SDS011;10356;50.544;9.642;2023-08-24T12:15:28;4.18;;;2.08;;
20393;SDS011;10356;50.544;9.642;2023-08-24T12:17:55;4.63;;;2.22;;
20393;SDS011;10356;50.544;9.642;2023-08-24T12:20:22;6.07;;;2.10;;
20393;SDS011;10356;50.544;9.642;2023-08-24T12:22:49;4.13;;;2.15;;
20393;SDS011;10356;50.544;9.642;2023-08-24T12:25:22;4.85;;;2.50;;
20393;SDS011;10356;50.544;9.642;2023-08-24T12:27:51;4.07;;;2.40;;
20393;SDS011;10356;50.544;9.642;2023-08-24T12:30:18;4.40;;;2.47;;
20393;SDS011;10356;50.544;9.642;2023-08-24T12:32:46;5.75;;;2.60;;
20393;SDS011;10356;50.544;9.642;2023-08-24T12:35:15;2.55;;;2.28;;
20393;SDS011;10356;50.544;9.642;2023-08-24T12:37:42;4.68;;;2.50;;
20393;SDS011;10356;50.544;9.642;2023-08-24T12:40:09;3.60;;;2.63;;
20393;SDS011;10356;50.544;9.642;2023-08-24T12:42:36;4.47;;;2.60;;
20393;SDS011;10356;50.544;9.642;2023-08-24T12:45:04;4.35;;;2.85;;
20393;SDS011;10356;50.544;9.642;2023-08-24T12:47:31;3.15;;;2.50;;
20393;SDS011;10356;50.544;9.642;2023-08-24T12:49:59;3.35;;;2.38;;
20393;SDS011;10356;50.544;9.642;2023-08-24T12:52:26;3.40;;;2.40;;
20393;SDS011;10356;50.544;9.642;2023-08-24T12:54:52;3.20;;;2.42;;
20393;SDS011;10356;50.544;9.642;2023-08-24T12:57:19;4.25;;;2.70;;
20393;SDS011;10356;50.544;9.642;2023-08-24T12:59:45;2.97;;;2.45;;
20393;SDS011;10356;50.544;9.642;2023-08-24T13:02:14;6.15;;;2.58;;
20393;SDS011;10356;50.544;9.642;2023-08-24T13:04:40;4.25;;;2.80;;
20393;SDS011;10356;50.544;9.642;2023-08-24T13:07:06;2.97;;;2.67;;
20393;SDS011;10356;50.544;9.642;2023-08-24T13:09:34;3.72;;;2.40;;
20393;SDS011;10356;50.544;9.642;2023-08-24T13:12:00;3.75;;;2.42;;
20393;SDS011;10356;50.544;9.642;2023-08-24T13:14:28;4.32;;;2.60;;
20393;SDS011;10356;50.544;9.642;2023-08-24T13:16:54;4.32;;;2.58;;
20393;SDS011;10356;50.544;9.642;2023-08-24T13:19:22;4.07;;;2.88;;
20393;SDS011;10356;50.544;9.642;2023-08-24T13:21:48;5.50;;;2.72;;
20393;SDS011;10356;50.544;9.642;2023-08-24T13:24:15;3.80;;;2.72;;
20393;SDS011;10356;50.544;9.642;2023-08-24T13:26:41;3.13;;;2.67;;
20393;SDS011;10356;50.544;9.642;2023-08-24T13:29:08;5.45;;;2.70;;
20393;SDS011;10356;50.544;9.642;2023-08-24T13:31:34;2.90;;;2.60;;
20393;SDS011;10356;50.544;9.642;2023-08-24T13:34:01;3.28;;;2.38;;
20393;SDS011;10356;50.544;9.642;2023-08-24T13:36:31;3.10;;;2.55;;
20393;SDS011;10356;50.544;9.642;2023-08-24T13:38:57;3.47;;;2.75;;
20393;SDS011;10356;50.544;9.642;2023-08-24T13:41:24;4.38;;;2.50;;
20393;SDS011;10356;50.544;9.642;2023-08-24T13:43:50;5.05;;;2.88;;
20393;SDS011;10356;50.544;9.642;2023-08-24T13:46:16;3.25;;;2.70;;
20393;SDS011;10356;50.544;9.642;2023-08-24T13:48:43;5.10;;;3.03;;
20393;SDS011;10356;50.544;9.642;2023-08-24T13:51:09;4.93;;;3.08;;
20393;SDS011;10356;50.544;9.642;2023-08-24T13:53:38;4.43;;;2.70;;
20393;SDS011;10356;50.544;9.642;2023-08-24T13:56:05;6.05;;;3.05;;
20393;SDS011;10356;50.544;9.642;2023-08-24T13:58:31;3.78;;;2.85;;
20393;SDS011;10356;50.544;9.642;2023-08-24T14:00:58;2.88;;;2.55;;
20393;SDS011;10356;50.544;9.642;2023-08-24T14:03:25;5.25;;;2.97;;
20393;SDS011;10356;50.544;9.642;2023-08-24T14:05:54;5.85;;;2.95;;
20393;SDS011;10356;50.544;9.642;2023-08-24T14:08:21;4.75;;;3.13;;
20393;SDS011;10356;50.544;9.642;2023-08-24T14:10:49;3.97;;;3.00;;
20393;SDS011;10356;50.544;9.642;2023-08-24T14:13:16;7.85;;;3.42;;
20393;SDS011;10356;50.544;9.642;2023-08-24T14:15:42;3.83;;;3.40;;
20393;SDS011;10356;50.544;9.642;2023-08-24T14:18:10;5.22;;;3.00;;
20393;SDS011;10356;50.544;9.642;2023-08-24T14:20:37;6.05;;;3.72;;
20393;SDS011;10356;50.544;9.642;2023-08-24T14:23:04;5.57;;;3.47;;
20393;SDS011;10356;50.544;9.642;2023-08-24T14:25:30;3.50;;;3.03;;
20393;SDS011;10356;50.544;9.642;2023-08-24T14:27:58;5.82;;;3.30;;
20393;SDS011;10356;50.544;9.642;2023-08-24T14:30:25;5.32;;;3.00;;
20393;SDS011;10356;50.544;9.642;2023-08-24T14:32:51;5.75;;;3.00;;
20393;SDS011;10356;50.544;9.642;2023-08-24T14:35:18;6.32;;;3.40;;
20393;SDS011;10356;50.544;9.642;2023-08-24T14:37:44;5.65;;;3.45;;
20393;SDS011;10356;50.544;9.642;2023-08-24T14:40:11;7.03;;;3.13;;
20393;SDS011;10356;50.544;9.642;2023-08-24T14:42:37;4.05;;;2.88;;
20393;SDS011;10356;50.544;9.642;2023-08-24T14:45:05;3.53;;;2.92;;
20393;SDS011;10356;50.544;9.642;2023-08-24T14:47:32;6.53;;;3.08;;
20393;SDS011;10356;50.544;9.642;2023-08-24T14:49:59;4.32;;;3.20;;
20393;SDS011;10356;50.544;9.642;2023-08-24T14:52:25;3.40;;;3.00;;